createdAt,value
2019-04-06T00:02:37.908Z,54.17
2019-04-06T00:07:41.649Z,55.80
2019-04-06T00:12:45.301Z,53.80
2019-04-06T00:17:48.972Z,54.07
2019-04-06T00:22:52.657Z,53.77
2019-04-06T00:27:56.318Z,52.73
2019-04-06T00:33:01.519Z,52.43
2019-04-06T00:38:05.266Z,51.80
2019-04-06T00:43:09.008Z,53.53
2019-04-06T00:48:12.555Z,53.40
2019-04-06T00:53:16.140Z,51.80
2019-04-06T00:58:19.719Z,52.67
2019-04-06T01:03:23.289Z,52.10
2019-04-06T01:08:26.895Z,51.67
2019-04-06T01:13:30.481Z,52.90
2019-04-06T01:18:34.071Z,52.53
2019-04-06T01:23:37.711Z,52.30
2019-04-06T01:28:41.373Z,51.23
2019-04-06T01:33:45.120Z,52.90
2019-04-06T01:38:48.806Z,51.47
2019-04-06T01:43:52.374Z,52.40
2019-04-06T01:48:56.003Z,52.50
2019-04-06T01:53:59.729Z,52.00
2019-04-06T01:59:03.370Z,51.97
2019-04-06T02:04:07.046Z,51.60
2019-04-06T02:09:10.696Z,50.97
2019-04-06T02:14:14.392Z,51.03
2019-04-06T02:19:18.004Z,50.40
2019-04-06T02:24:21.635Z,50.37
2019-04-06T02:29:25.282Z,50.57
2019-04-06T02:34:39.385Z,49.77
2019-04-06T02:39:50.290Z,50.97
2019-04-06T02:44:53.895Z,49.93
2019-04-06T02:49:57.468Z,52.60
2019-04-06T02:55:01.151Z,50.03
2019-04-06T03:00:07.469Z,50.73
2019-04-06T03:05:11.312Z,51.33
2019-04-06T03:10:15.017Z,50.17
2019-04-06T03:15:18.797Z,50.87
2019-04-06T03:20:22.387Z,50.30
2019-04-06T03:25:26.068Z,49.30
2019-04-06T03:30:30.301Z,49.75
2019-04-06T03:35:34.149Z,48.47
2019-04-06T03:40:37.808Z,48.63
2019-04-06T03:45:41.551Z,49.70
2019-04-06T03:50:45.392Z,47.78
2019-04-06T03:55:49.131Z,48.90
2019-04-06T04:00:52.880Z,48.80
2019-04-06T04:05:56.538Z,48.30
2019-04-06T04:11:00.240Z,48.17
2019-04-06T04:16:05.362Z,48.70
2019-04-06T04:21:09.086Z,48.55
2019-04-06T04:26:12.671Z,48.20
2019-04-06T04:31:16.321Z,48.83
2019-04-06T04:36:20.170Z,48.13
2019-04-06T04:41:23.828Z,46.83
2019-04-06T04:46:27.535Z,47.03
2019-04-06T04:51:31.164Z,47.23
2019-04-06T04:56:35.150Z,48.87
2019-04-06T05:01:38.907Z,48.53
2019-04-06T05:06:42.527Z,48.20
2019-04-06T05:11:46.116Z,52.00
2019-04-06T05:16:49.773Z,55.67
2019-04-06T05:21:53.351Z,57.07
2019-04-06T05:26:57.031Z,57.10
2019-04-06T05:32:00.647Z,57.37
2019-04-06T05:37:04.253Z,59.60
2019-04-06T05:42:07.887Z,58.43
2019-04-06T05:47:11.474Z,58.83
2019-04-06T05:52:15.083Z,59.87
2019-04-06T05:57:18.699Z,59.53
2019-04-06T06:02:22.375Z,60.30
2019-04-06T06:07:26.013Z,60.50
2019-04-06T06:12:29.723Z,61.67
2019-04-06T06:17:33.362Z,61.60
2019-04-06T06:22:36.992Z,60.28
2019-04-06T06:27:40.572Z,61.95
2019-04-06T06:32:44.177Z,61.13
2019-04-06T06:37:47.813Z,63.58
2019-04-06T06:42:51.443Z,63.28
2019-04-06T06:47:55.513Z,63.87
2019-04-06T06:52:59.169Z,64.62
2019-04-06T06:58:02.775Z,65.97
2019-04-06T07:03:06.453Z,62.60
2019-04-06T07:08:10.122Z,61.85
2019-04-06T07:13:13.758Z,62.98
2019-04-06T07:18:17.437Z,62.83
2019-04-06T07:23:21.031Z,63.48
2019-04-06T07:28:36.319Z,60.33
2019-04-06T07:33:30.080Z,62.25
2019-04-06T07:38:33.728Z,61.80
2019-04-06T07:43:37.310Z,60.88
2019-04-06T07:48:41.063Z,60.05
2019-04-06T07:53:44.557Z,59.83
2019-04-06T07:58:49.956Z,61.28
2019-04-06T08:03:53.617Z,62.30
2019-04-06T08:08:57.215Z,61.88
2019-04-06T08:14:00.796Z,62.55
2019-04-06T08:19:04.617Z,61.02
2019-04-06T08:24:08.587Z,62.33
2019-04-06T08:29:12.369Z,62.78
2019-04-06T08:34:15.987Z,63.08
2019-04-06T08:39:19.648Z,62.55
2019-04-06T08:44:23.278Z,62.90
2019-04-06T08:49:26.867Z,64.37
2019-04-06T08:54:30.463Z,64.60
2019-04-06T08:59:34.078Z,64.92
2019-04-06T09:04:37.642Z,66.25
2019-04-06T09:09:41.300Z,65.32
2019-04-06T09:14:44.871Z,67.20
2019-04-06T09:19:48.480Z,66.87
2019-04-06T09:24:52.145Z,65.60
2019-04-06T09:29:55.740Z,62.03
2019-04-06T09:34:59.401Z,63.02
2019-04-06T09:40:03.444Z,60.60
2019-04-06T09:45:25.501Z,61.05
2019-04-06T09:50:47.155Z,61.80
2019-04-06T09:56:04.104Z,62.48
2019-04-06T10:01:32.501Z,61.47
2019-04-06T10:06:35.408Z,62.65
2019-04-06T10:11:49.375Z,62.38
2019-04-06T10:17:09.930Z,62.35
2019-04-06T10:22:15.349Z,61.30
2019-04-06T10:27:38.991Z,63.23
2019-04-06T10:32:50.048Z,64.60
2019-04-06T10:37:57.949Z,66.28
2019-04-06T10:43:15.248Z,69.75
2019-04-06T10:48:38.541Z,68.67
2019-04-06T10:53:46.641Z,66.53
2019-04-06T10:58:51.852Z,71.60
2019-04-06T11:03:57.129Z,67.32
2019-04-06T11:09:14.212Z,66.95
2019-04-06T11:14:19.431Z,66.30
2019-04-06T11:19:39.302Z,62.75
2019-04-06T11:25:00.805Z,62.33
2019-04-06T11:30:17.703Z,63.52
2019-04-06T11:35:25.962Z,61.37
2019-04-06T11:40:36.855Z,62.63
2019-04-06T11:45:58.184Z,64.65
2019-04-06T11:51:19.683Z,65.97
2019-04-06T11:56:25.033Z,69.72
2019-04-06T12:01:30.326Z,68.60
2019-04-06T12:06:51.883Z,69.58
2019-04-06T12:12:03.053Z,73.37
2019-04-06T12:17:24.373Z,69.90
2019-04-06T12:22:45.770Z,63.52
2019-04-06T12:27:51.025Z,66.75
2019-04-06T12:33:04.751Z,61.77
2019-04-06T12:38:10.063Z,62.00
2019-04-06T12:43:31.929Z,60.12
2019-04-06T12:48:42.899Z,58.52
2019-04-06T12:53:53.951Z,60.80
2019-04-06T12:58:59.654Z,60.33
2019-04-06T13:04:21.434Z,58.58
2019-04-06T13:09:29.550Z,60.70
2019-04-06T13:14:46.578Z,58.90
2019-04-06T13:19:51.897Z,60.30
2019-04-06T13:25:08.909Z,61.08
2019-04-06T13:30:26.815Z,59.98
2019-04-06T13:35:37.673Z,57.85
2019-04-06T13:40:55.187Z,58.45
2019-04-06T13:46:16.663Z,59.98
2019-04-06T13:51:24.562Z,65.25
2019-04-06T13:56:47.911Z,62.10
2019-04-06T14:01:55.987Z,59.90
2019-04-06T14:07:04.228Z,60.92
2019-04-06T14:12:09.621Z,60.35
2019-04-06T14:17:33.003Z,60.88
2019-04-06T14:22:54.508Z,63.75
2019-04-06T14:28:02.680Z,60.20
2019-04-06T14:33:13.894Z,61.15
2019-04-06T14:38:35.006Z,61.20
2019-04-06T14:43:55.623Z,59.85
2019-04-06T14:49:13.594Z,60.30
2019-04-06T14:54:08.075Z,63.68
2019-04-06T14:59:28.512Z,61.98
2019-04-06T15:04:33.716Z,67.00
2019-04-06T15:09:39.004Z,63.60
2019-04-06T15:14:50.484Z,64.12
2019-04-06T15:20:01.412Z,61.08
2019-04-06T15:25:08.269Z,61.05
2019-04-06T15:30:29.821Z,62.60
2019-04-06T15:35:37.796Z,60.20
2019-04-06T15:40:59.788Z,62.10
2019-04-06T15:46:07.947Z,71.53
2019-04-06T15:51:16.051Z,63.77
2019-04-06T15:56:24.309Z,61.13
2019-04-06T16:01:32.383Z,66.07
2019-04-06T16:06:37.590Z,64.37
2019-04-06T16:11:54.750Z,62.48
2019-04-06T16:17:05.804Z,61.88
2019-04-06T16:22:11.370Z,61.33
2019-04-06T16:27:22.391Z,62.85
2019-04-06T16:32:33.565Z,62.10
2019-04-06T16:37:34.987Z,61.92
2019-04-06T16:42:56.497Z,61.33
2019-04-06T16:48:13.491Z,61.73
2019-04-06T16:53:36.698Z,64.20
2019-04-06T16:58:48.069Z,71.28
2019-04-06T17:04:05.867Z,75.37
2019-04-06T17:09:11.194Z,73.35
2019-04-06T17:14:16.953Z,72.00
2019-04-06T17:19:38.309Z,62.65
2019-04-06T17:24:43.538Z,62.40
2019-04-06T17:30:00.767Z,64.57
2019-04-06T17:35:07.818Z,63.23
2019-04-06T17:40:14.167Z,65.08
2019-04-06T17:45:32.147Z,66.50
2019-04-06T17:50:40.523Z,69.17
2019-04-06T17:56:10.441Z,77.03
2019-04-06T18:01:21.677Z,68.12
2019-04-06T18:06:32.656Z,66.30
2019-04-06T18:11:38.052Z,65.47
2019-04-06T18:16:42.003Z,64.10
2019-04-06T18:21:45.877Z,64.20
2019-04-06T18:26:49.740Z,62.90
2019-04-06T18:32:00.593Z,61.37
2019-04-06T18:37:21.374Z,62.77
2019-04-06T18:42:25.355Z,63.03
2019-04-06T18:47:28.954Z,63.20
2019-04-06T18:52:32.869Z,64.27
2019-04-06T18:57:36.883Z,70.40
2019-04-06T19:02:42.453Z,83.20
2019-04-06T19:07:46.212Z,82.87
2019-04-06T19:12:49.805Z,76.03
2019-04-06T19:17:53.466Z,63.37
2019-04-06T19:22:57.202Z,63.13
2019-04-06T19:28:01.025Z,65.50
2019-04-06T19:33:04.837Z,81.03
2019-04-06T19:38:08.646Z,79.20
2019-04-06T19:43:12.298Z,93.77
2019-04-06T19:48:16.041Z,134.13
2019-04-06T19:53:20.122Z,137.50
2019-04-06T19:58:23.813Z,138.80
2019-04-06T20:03:35.118Z,135.67
2019-04-06T20:08:32.896Z,115.70
2019-04-06T20:13:36.565Z,118.77
2019-04-06T20:18:40.146Z,98.47
2019-04-06T20:23:43.863Z,87.37
2019-04-06T20:28:47.885Z,104.67
2019-04-06T20:33:53.254Z,97.33
2019-04-06T20:38:57.040Z,106.40
2019-04-06T20:44:00.773Z,92.57
2019-04-06T20:49:04.675Z,87.27
2019-04-06T20:54:09.039Z,79.67
2019-04-06T20:59:13.053Z,65.20
2019-04-06T21:04:16.688Z,70.60
2019-04-06T21:09:20.322Z,66.60
2019-04-06T21:14:24.039Z,73.27
2019-04-06T21:19:28.154Z,69.60
2019-04-06T21:24:32.818Z,65.67
2019-04-06T21:29:36.526Z,64.17
2019-04-06T21:34:40.483Z,67.13
2019-04-06T21:39:44.119Z,62.43
2019-04-06T21:44:48.055Z,57.33
2019-04-06T21:49:52.195Z,56.03
2019-04-06T21:54:56.878Z,56.73
2019-04-06T22:00:00.851Z,58.37
2019-04-06T22:05:08.174Z,56.67
2019-04-06T22:10:11.970Z,59.13
2019-04-06T22:15:16.178Z,57.40
2019-04-06T22:20:20.402Z,55.30
2019-04-06T22:25:24.262Z,55.50
2019-04-06T22:30:28.029Z,55.73
2019-04-06T22:35:31.711Z,57.65
2019-04-06T22:40:35.750Z,59.23
2019-04-06T22:45:39.491Z,63.03
2019-04-06T22:50:43.147Z,63.03
2019-04-06T22:55:46.724Z,61.30
2019-04-06T23:00:55.529Z,59.00
2019-04-06T23:06:06.658Z,59.30
2019-04-06T23:11:10.231Z,59.67
2019-04-06T23:16:13.906Z,60.30
2019-04-06T23:21:17.521Z,58.87
2019-04-06T23:26:21.424Z,61.33
2019-04-06T23:31:25.701Z,62.90
2019-04-06T23:36:29.339Z,61.90
2019-04-06T23:41:33.499Z,61.47
2019-04-06T23:46:37.338Z,61.47
2019-04-06T23:51:41.447Z,59.37
2019-04-06T23:56:45.153Z,58.33
